Vernon, Alabama
Current Conditions -  °F | °C
As of 3:58 PM on Sunday 25 Jan 2015 (Local Time) from KCBM Reporting Station
Overcast Overcast  
Wind Chill: 60°   Ceiling: 6000
Heat Index: 60°   Visibility: 10mi
Dew Point: 41°   Wind: 14mph
Humidity: 49%   Direction: 280°W
Pressure: 29.73"   Gusts: NA
Location:  33.76°N, 88.11°W
Report Text: KCBM 252158Z AUTO 28012KT 10SM BKN060 OVC090 16/05 A2973 RMK AO2 RAE2058 SLP071 P0000 T01550049 $
Loading
Personal Weather Stations






























Interactive Weather Map New forecast layout! Learn more

10-Day Weather Forecast

Advertisements
Track Severe Weather on mobile